Time;durP1;ratioP1;P1;durP2;ratioP2;P2;SDS_P1;SDS_P2;PMS_P1;PMS_P2;Temp;Humidity;BMP_temperature;BMP_pressure;BME280_temperature;BME280_humidity;BME280_pressure;Samples;Min_cycle;Max_cycle;Signal;HPM_P1;HPM_P2
2022/10/23 00:02:24;;;;;;;0.93;0.93;;;9.20;99.90;;;;;;5029404;28;20033;-69
2022/10/23 00:04:51;;;;;;;1.13;1.13;;;9.20;99.90;;;;;;5024976;28;20037;-69
2022/10/23 00:07:17;;;;;;;1.67;1.30;;;9.20;99.90;;;;;;5030389;28;20116;-69
2022/10/23 00:09:43;;;;;;;0.80;0.75;;;9.20;99.90;;;;;;5028524;28;20041;-68
2022/10/23 00:12:09;;;;;;;2.10;2.00;;;9.20;99.90;;;;;;5027581;28;20036;-68
2022/10/23 00:14:34;;;;;;;1.50;1.40;;;9.20;99.90;;;;;;5028939;28;20079;-68
2022/10/23 00:17:00;;;;;;;1.20;1.07;;;9.10;99.90;;;;;;5029514;28;20040;-67
2022/10/23 00:19:25;;;;;;;1.00;1.00;;;9.20;99.90;;;;;;5030092;28;20078;-71
2022/10/23 00:21:51;;;;;;;1.17;1.17;;;9.20;99.90;;;;;;5028981;28;20033;-70
2022/10/23 00:24:17;;;;;;;5.60;3.60;;;9.20;99.90;;;;;;5029342;28;20108;-69
2022/10/23 00:26:42;;;;;;;1.27;1.23;;;9.10;99.90;;;;;;5031272;28;20068;-68
2022/10/23 00:29:09;;;;;;;1.57;1.47;;;9.10;99.90;;;;;;5027932;28;20026;-70
2022/10/23 00:31:35;;;;;;;1.58;1.17;;;10.00;99.90;;;;;;5027089;28;20056;-69
2022/10/23 00:34:02;;;;;;;17.98;1.58;;;9.10;99.90;;;;;;5030064;28;20428;-68
2022/10/23 00:36:28;;;;;;;1.15;1.13;;;9.10;99.90;;;;;;5028103;28;20086;-69
2022/10/23 00:38:54;;;;;;;2.13;1.87;;;9.00;99.90;;;;;;5028886;28;20034;-68
2022/10/23 00:41:27;;;;;;;2.73;2.53;;;9.00;99.90;;;;;;5029050;28;20036;-69
2022/10/23 00:44:03;;;;;;;1.55;1.45;;;9.00;99.90;;;;;;5028638;28;20034;-69
2022/10/23 00:46:30;;;;;;;2.55;2.35;;;8.90;99.90;;;;;;5029528;28;20114;-69
2022/10/23 00:48:57;;;;;;;3.13;2.05;;;8.90;99.90;;;;;;5028857;28;20076;-70
2022/10/23 00:51:22;;;;;;;;;;;8.90;99.90;;;;;;5029970;28;20045;-69
2022/10/23 00:53:51;;;;;;;3.38;2.67;;;8.90;99.90;;;;;;5027518;28;19909;-70
2022/10/23 00:56:17;;;;;;;2.45;2.25;;;8.90;99.90;;;;;;5029196;28;20476;-70
2022/10/23 00:58:43;;;;;;;1.53;1.43;;;8.90;99.90;;;;;;5026364;28;20037;-68
2022/10/23 01:01:21;;;;;;;5.50;3.77;;;8.90;99.90;;;;;;5029693;28;20068;-68
2022/10/23 01:03:47;;;;;;;1.05;1.02;;;8.90;99.90;;;;;;5026207;28;20096;-69
2022/10/23 01:06:36;;;;;;;3.20;2.90;;;8.90;99.90;;;;;;5028873;28;20024;-68
2022/10/23 01:09:11;;;;;;;1.98;1.88;;;8.90;99.90;;;;;;5029471;28;20044;-70
2022/10/23 01:11:42;;;;;;;1.88;1.77;;;8.90;99.90;;;;;;5028799;28;20037;-69
2022/10/23 01:14:16;;;;;;;3.88;3.55;;;8.90;99.90;;;;;;5029529;28;20025;-68
2022/10/23 01:16:53;;;;;;;2.33;2.15;;;8.90;99.90;;;;;;5028250;28;20038;-69
2022/10/23 01:19:45;;;;;;;0.65;0.65;;;8.90;99.90;;;;;;5019793;28;20021;-70
2022/10/23 01:22:17;;;;;;;2.05;1.77;;;9.00;99.90;;;;;;5032130;28;20033;-69
2022/10/23 01:24:56;;;;;;;1.13;1.10;;;8.90;99.90;;;;;;5033792;28;20036;-69
2022/10/23 01:27:25;;;;;;;0.98;0.98;;;8.80;99.90;;;;;;5034594;28;20374;-70
2022/10/23 01:29:58;;;;;;;4.78;1.98;;;8.80;99.90;;;;;;5035165;28;20029;-70
2022/10/23 01:32:32;;;;;;;4.22;3.60;;;8.80;99.90;;;;;;5034388;28;20472;-71
2022/10/23 01:35:03;;;;;;;6.30;2.33;;;7.80;99.90;;;;;;5024533;28;20021;-70
2022/10/23 01:37:42;;;;;;;1.95;1.60;;;8.80;99.90;;;;;;5032820;28;20105;-69
2022/10/23 01:40:16;;;;;;;2.20;2.00;;;8.80;99.90;;;;;;5033817;28;20175;-69
2022/10/23 01:42:47;;;;;;;1.85;1.73;;;8.80;99.90;;;;;;5031648;28;20381;-69
2022/10/23 01:45:30;;;;;;;1.85;1.70;;;8.80;99.90;;;;;;5034318;28;20106;-69
2022/10/23 01:47:56;;;;;;;1.95;1.85;;;9.10;99.90;;;;;;5033793;28;20501;-67
2022/10/23 01:50:24;;;;;;;4.13;3.75;;;8.70;99.90;;;;;;5036710;28;20045;-70
2022/10/23 01:52:50;;;;;;;6.32;5.75;;;8.70;99.90;;;;;;5032988;28;20068;-69
2022/10/23 01:55:16;;;;;;;1.80;1.70;;;8.70;99.90;;;;;;5032860;28;20099;-70
2022/10/23 01:57:44;;;;;;;1.80;1.70;;;8.70;99.90;;;;;;5033008;28;20044;-70
2022/10/23 02:00:15;;;;;;;4.53;1.77;;;8.70;99.90;;;;;;5032047;28;20072;-70
2022/10/23 02:02:43;;;;;;;1.15;1.13;;;8.70;99.90;;;;;;5032239;28;20033;-69
2022/10/23 02:05:21;;;;;;;3.10;2.80;;;8.70;99.90;;;;;;5031300;28;20025;-70
2022/10/23 02:07:47;;;;;;;2.25;2.05;;;8.70;99.90;;;;;;5030438;28;20112;-69
2022/10/23 02:10:13;;;;;;;2.27;2.13;;;8.70;99.90;;;;;;5031691;28;20548;-69
2022/10/23 02:12:48;;;;;;;10.65;2.80;;;8.70;99.90;;;;;;5031731;28;20385;-69
2022/10/23 02:15:24;;;;;;;2.50;2.40;;;8.70;99.90;;;;;;5032390;28;20053;-69
2022/10/23 02:18:33;;;;;;;2.08;1.92;;;8.70;99.90;;;;;;5030490;28;20587;-70
2022/10/23 02:21:08;;;;;;;1.40;1.30;;;8.60;99.90;;;;;;5029997;28;20033;-69
2022/10/23 02:23:46;;;;;;;1.77;1.33;;;8.70;99.90;;;;;;5030492;28;20465;-69
2022/10/23 02:26:27;;;;;;;1.90;1.80;;;8.70;99.90;;;;;;5024872;28;20091;-70
2022/10/23 02:29:17;;;;;;;2.85;2.42;;;8.70;99.90;;;;;;5031517;28;20469;-68
2022/10/23 02:31:43;;;;;;;2.50;2.28;;;8.70;99.90;;;;;;5032066;28;20136;-70
2022/10/23 02:34:08;;;;;;;2.17;2.03;;;8.60;99.90;;;;;;5030537;28;20093;-69
2022/10/23 02:36:34;;;;;;;2.27;2.10;;;8.60;99.90;;;;;;5033135;28;20107;-69
2022/10/23 02:39:00;;;;;;;1.77;1.67;;;8.60;99.90;;;;;;5033148;28;20037;-70
2022/10/23 02:41:40;;;;;;;1.83;1.73;;;8.60;99.90;;;;;;5033150;28;20124;-69
2022/10/23 02:44:24;;;;;;;3.55;1.92;;;8.60;99.90;;;;;;5033081;28;20541;-69
2022/10/23 02:46:58;;;;;;;2.53;2.38;;;8.60;99.90;;;;;;5013200;28;20045;-69
2022/10/23 02:49:29;;;;;;;1.65;1.55;;;8.60;99.90;;;;;;5021870;28;20061;-69
2022/10/23 02:52:15;;;;;;;7.65;1.80;;;8.60;99.90;;;;;;5030806;28;20034;-68
2022/10/23 02:55:05;;;;;;;2.78;2.40;;;8.60;99.90;;;;;;5022171;28;20061;-70
2022/10/23 02:57:39;;;;;;;0.95;0.95;;;8.60;99.90;;;;;;5031398;28;20119;-69
2022/10/23 03:00:12;;;;;;;1.52;1.15;;;8.60;99.90;;;;;;5031455;28;20025;-69
2022/10/23 03:02:39;;;;;;;1.48;1.42;;;8.60;99.90;;;;;;5031507;28;20026;-68
2022/10/23 03:05:10;;;;;;;2.45;2.28;;;8.60;99.90;;;;;;5029706;28;20036;-68
2022/10/23 03:07:37;;;;;;;6.40;2.17;;;8.60;99.90;;;;;;5031649;28;20389;-69
2022/10/23 03:10:03;;;;;;;0.90;0.90;;;8.60;99.90;;;;;;5031440;28;20077;-69
2022/10/23 03:12:29;;;;;;;2.63;1.48;;;8.60;99.90;;;;;;5032100;28;20025;-68
2022/10/23 03:14:54;;;;;;;4.13;2.90;;;8.60;99.90;;;;;;5030073;28;20488;-68
2022/10/23 03:17:20;;;;;;;3.40;3.20;;;8.70;99.90;;;;;;5032001;28;20459;-69
2022/10/23 03:19:46;;;;;;;1.27;1.17;;;8.70;99.90;;;;;;5031315;28;20025;-69
2022/10/23 03:22:11;;;;;;;9.87;3.93;;;8.70;99.90;;;;;;5031967;28;20478;-69
2022/10/23 03:24:37;;;;;;;4.33;3.10;;;8.70;99.90;;;;;;5030490;28;20505;-71
2022/10/23 03:27:02;;;;;;;10.70;3.97;;;8.70;99.90;;;;;;5030061;28;20037;-70
2022/10/23 03:29:28;;;;;;;0.90;0.90;;;8.70;99.90;;;;;;5029278;28;20030;-69
2022/10/23 03:31:54;;;;;;;2.70;2.50;;;8.80;99.90;;;;;;5029996;28;20435;-70
2022/10/23 03:34:20;;;;;;;1.38;1.33;;;8.80;99.90;;;;;;5029797;28;20037;-68
2022/10/23 03:36:46;;;;;;;1.70;1.37;;;8.90;99.90;;;;;;5030933;28;20390;-71
2022/10/23 03:39:11;;;;;;;2.93;2.63;;;8.80;99.90;;;;;;5031177;28;20041;-69
2022/10/23 03:41:37;;;;;;;2.60;2.40;;;8.90;99.90;;;;;;5031304;28;20033;-68
2022/10/23 03:44:02;;;;;;;1.83;1.30;;;8.90;99.90;;;;;;5030126;28;20079;-69
2022/10/23 03:46:28;;;;;;;2.60;2.40;;;9.00;99.90;;;;;;5031956;28;20036;-69
2022/10/23 03:48:57;;;;;;;3.33;2.70;;;9.00;99.90;;;;;;5028190;28;20037;-70
2022/10/23 03:51:22;;;;;;;1.05;0.95;;;9.00;99.90;;;;;;5028253;28;20099;-69
2022/10/23 03:53:48;;;;;;;4.90;3.13;;;8.90;99.90;;;;;;5029922;28;20029;-68
2022/10/23 03:56:14;;;;;;;1.93;1.83;;;8.90;99.90;;;;;;5031885;28;20056;-69
2022/10/23 03:58:39;;;;;;;2.30;2.17;;;9.00;99.90;;;;;;5030611;28;20397;-69
2022/10/23 04:01:05;;;;;;;1.03;1.00;;;8.90;99.90;;;;;;5029715;28;20037;-70
2022/10/23 04:03:30;;;;;;;2.33;1.53;;;8.90;99.90;;;;;;5030113;28;20056;-69
2022/10/23 04:05:56;;;;;;;3.07;2.87;;;9.00;99.90;;;;;;5031859;28;20018;-69
2022/10/23 04:08:21;;;;;;;5.40;2.77;;;9.00;99.90;;;;;;5030446;28;20496;-69
2022/10/23 04:10:47;;;;;;;2.00;1.90;;;9.00;99.90;;;;;;5029431;28;20476;-68
2022/10/23 04:13:13;;;;;;;1.10;1.10;;;9.00;99.90;;;;;;5028641;28;20045;-69
2022/10/23 04:15:38;;;;;;;4.23;3.53;;;9.10;99.90;;;;;;5031385;28;20029;-69
2022/10/23 04:18:04;;;;;;;3.07;2.37;;;9.10;99.90;;;;;;5029359;28;20083;-70
2022/10/23 04:20:30;;;;;;;4.20;2.67;;;9.10;99.90;;;;;;5029242;28;20061;-70
2022/10/23 04:22:56;;;;;;;0.55;0.55;;;9.10;99.90;;;;;;5028980;28;20440;-70
2022/10/23 04:25:21;;;;;;;1.50;1.40;;;9.10;99.90;;;;;;5028370;28;20037;-70
2022/10/23 04:27:47;;;;;;;1.80;1.70;;;9.20;99.90;;;;;;5029171;28;20038;-70
2022/10/23 04:30:13;;;;;;;1.63;1.53;;;9.20;99.90;;;;;;5028826;28;20044;-69
2022/10/23 04:32:38;;;;;;;1.47;1.40;;;9.10;99.90;;;;;;5029412;28;20098;-68
2022/10/23 04:35:05;;;;;;;2.63;2.33;;;9.20;99.90;;;;;;5029966;28;20535;-69
2022/10/23 04:37:31;;;;;;;1.52;1.42;;;9.20;99.90;;;;;;5029644;28;20418;-69
2022/10/23 04:39:57;;;;;;;2.28;1.80;;;9.20;99.90;;;;;;5028817;28;20031;-69
2022/10/23 04:42:22;;;;;;;2.03;1.93;;;9.20;99.90;;;;;;5029102;28;20037;-69
2022/10/23 04:44:48;;;;;;;2.50;2.30;;;9.20;99.90;;;;;;5029067;28;20029;-69
2022/10/23 04:47:13;;;;;;;2.07;0.93;;;9.20;99.90;;;;;;5027870;28;20061;-68
2022/10/23 04:49:39;;;;;;;1.67;1.57;;;9.20;99.90;;;;;;5029467;28;20036;-69
2022/10/23 04:52:05;;;;;;;0.30;0.30;;;9.20;99.90;;;;;;5030404;28;20033;-71
2022/10/23 04:54:36;;;;;;;1.37;1.27;;;9.20;99.90;;;;;;5028083;28;20029;-69
2022/10/23 04:57:02;;;;;;;0.82;0.82;;;9.20;99.90;;;;;;5029483;28;20033;-69
2022/10/23 04:59:27;;;;;;;2.17;2.03;;;9.30;99.90;;;;;;5029517;28;20100;-69
2022/10/23 05:01:53;;;;;;;1.17;1.13;;;9.30;99.90;;;;;;5028609;28;20397;-68
2022/10/23 05:04:18;;;;;;;2.83;2.47;;;9.20;99.90;;;;;;5029629;28;20444;-68
2022/10/23 05:06:44;;;;;;;2.07;1.93;;;9.20;99.90;;;;;;5031128;28;20532;-69
2022/10/23 05:09:09;;;;;;;1.43;1.33;;;9.30;99.90;;;;;;5028472;28;20378;-70
2022/10/23 05:11:35;;;;;;;1.43;1.33;;;9.30;99.90;;;;;;5028387;28;20060;-70
2022/10/23 05:14:00;;;;;;;1.93;1.80;;;9.30;99.90;;;;;;5029445;28;20111;-69
2022/10/23 05:16:52;;;;;;;1.33;1.23;;;9.40;99.90;;;;;;5030525;28;20049;-70
2022/10/23 05:19:25;;;;;;;0.60;0.60;;;9.10;99.90;;;;;;5028637;28;20025;-69
2022/10/23 05:21:54;;;;;;;1.73;1.60;;;9.40;99.90;;;;;;5028488;28;20450;-68
2022/10/23 05:24:21;;;;;;;0.45;0.45;;;9.40;99.90;;;;;;5027542;28;20076;-70
2022/10/23 05:26:46;;;;;;;1.00;1.00;;;9.40;99.90;;;;;;5029053;28;20528;-69
2022/10/23 05:29:12;;;;;;;1.53;1.43;;;9.40;99.90;;;;;;5030040;28;20059;-71
2022/10/23 05:31:38;;;;;;;0.60;0.60;;;9.40;99.90;;;;;;5030570;28;20037;-70
2022/10/23 05:34:05;;;;;;;0.70;0.70;;;9.40;99.90;;;;;;5029036;28;20029;-70
2022/10/23 05:36:30;;;;;;;2.00;1.90;;;9.40;99.90;;;;;;5026235;28;20091;-69
2022/10/23 05:38:57;;;;;;;0.90;0.90;;;9.40;99.90;;;;;;5029815;28;20029;-69
2022/10/23 05:41:22;;;;;;;1.48;1.38;;;9.40;99.90;;;;;;5027191;28;20034;-69
2022/10/23 05:43:48;;;;;;;1.00;1.00;;;9.40;99.90;;;;;;5028915;28;20087;-70
2022/10/23 05:46:13;;;;;;;1.50;1.20;;;9.40;99.90;;;;;;5029370;28;20164;-69
2022/10/23 05:48:39;;;;;;;6.33;2.13;;;9.50;99.90;;;;;;5028150;28;20060;-68
2022/10/23 05:51:06;;;;;;;3.50;2.90;;;9.40;99.90;;;;;;5028762;28;20110;-69
2022/10/23 05:53:32;;;;;;;2.60;1.63;;;9.50;99.90;;;;;;5027869;28;20029;-70
2022/10/23 05:56:07;;;;;;;1.77;1.67;;;9.50;99.90;;;;;;5030666;28;20040;-69
2022/10/23 05:58:33;;;;;;;1.58;1.48;;;9.50;99.90;;;;;;5029274;28;20113;-69
2022/10/23 06:01:03;;;;;;;1.35;1.27;;;9.50;99.90;;;;;;5028656;28;20030;-68
2022/10/23 06:03:28;;;;;;;2.63;2.42;;;9.50;99.90;;;;;;5027859;28;20099;-69
2022/10/23 06:05:54;;;;;;;0.40;0.40;;;9.50;99.90;;;;;;5026071;28;20114;-67
2022/10/23 06:08:19;;;;;;;2.20;1.97;;;9.50;99.90;;;;;;5028946;28;20042;-70
2022/10/23 06:10:45;;;;;;;2.47;1.63;;;10.10;99.90;;;;;;5033534;28;20029;-70
2022/10/23 06:13:10;;;;;;;2.93;1.67;;;9.50;99.90;;;;;;5031393;28;20037;-70
2022/10/23 06:15:37;;;;;;;0.97;0.97;;;9.50;99.90;;;;;;5032635;28;20128;-70
2022/10/23 06:18:03;;;;;;;3.58;2.38;;;9.50;99.90;;;;;;5033208;28;20032;-68
2022/10/23 06:20:29;;;;;;;0.85;0.85;;;9.60;99.90;;;;;;5033518;28;20493;-71
2022/10/23 06:22:54;;;;;;;2.40;2.20;;;9.60;99.90;;;;;;5033121;28;20155;-69
2022/10/23 06:25:20;;;;;;;1.40;1.07;;;9.60;99.90;;;;;;5032344;28;20026;-71
2022/10/23 06:27:46;;;;;;;0.70;0.70;;;9.60;99.90;;;;;;5030863;28;20056;-71
2022/10/23 06:30:11;;;;;;;0.70;0.70;;;9.60;99.90;;;;;;5031954;28;20548;-68
2022/10/23 06:32:37;;;;;;;0.60;0.60;;;9.60;99.90;;;;;;5032611;28;20159;-70
2022/10/23 06:35:04;;;;;;;0.77;0.77;;;9.70;99.90;;;;;;5031385;28;20033;-70
2022/10/23 06:37:32;;;;;;;1.88;1.75;;;9.70;99.90;;;;;;5032865;28;20332;-70
2022/10/23 06:39:57;;;;;;;1.08;1.02;;;9.70;99.90;;;;;;5032034;28;20362;-70
2022/10/23 06:42:23;;;;;;;1.93;1.77;;;9.70;99.90;;;;;;5031684;28;20037;-69
2022/10/23 06:44:49;;;;;;;0.93;0.93;;;9.70;99.90;;;;;;5030483;28;20514;-70
2022/10/23 06:47:14;;;;;;;1.23;1.23;;;9.70;99.90;;;;;;5031945;28;20053;-69
2022/10/23 06:49:40;;;;;;;2.73;2.37;;;9.70;99.90;;;;;;5029820;28;20037;-71
2022/10/23 06:52:05;;;;;;;2.30;1.97;;;9.70;99.90;;;;;;5033273;28;20029;-69
2022/10/23 06:54:31;;;;;;;1.47;1.37;;;9.80;99.90;;;;;;5031187;28;20104;-69
2022/10/23 06:56:57;;;;;;;1.23;1.13;;;9.80;99.90;;;;;;5032444;28;20041;-69
2022/10/23 06:59:22;;;;;;;1.37;1.27;;;9.90;99.90;;;;;;5031745;28;20075;-69
2022/10/23 07:01:49;;;;;;;3.77;2.60;;;9.80;99.90;;;;;;5032367;28;20029;-69
2022/10/23 07:04:14;;;;;;;2.08;1.38;;;9.80;99.90;;;;;;5030443;28;20410;-69
2022/10/23 07:06:41;;;;;;;1.37;1.27;;;9.80;99.90;;;;;;5034754;28;20038;-70
2022/10/23 07:09:07;;;;;;;1.25;1.17;;;9.80;99.90;;;;;;5031973;28;20022;-69
2022/10/23 07:11:33;;;;;;;2.33;2.13;;;9.80;99.90;;;;;;5030637;28;20033;-70
2022/10/23 07:13:58;;;;;;;2.60;2.10;;;9.80;99.90;;;;;;5031270;28;20037;-70
2022/10/23 07:16:24;;;;;;;2.23;2.00;;;9.80;99.90;;;;;;5034953;28;20112;-70
2022/10/23 07:18:58;;;;;;;1.43;1.33;;;9.90;99.90;;;;;;5030453;28;20482;-70
2022/10/23 07:21:29;;;;;;;2.78;2.15;;;9.90;99.90;;;;;;5032388;28;20069;-70
2022/10/23 07:23:56;;;;;;;0.77;0.77;;;9.80;99.90;;;;;;5031429;28;20037;-71
2022/10/23 07:26:21;;;;;;;1.88;1.70;;;9.90;99.90;;;;;;5031178;28;20121;-71
2022/10/23 07:28:50;;;;;;;1.60;1.50;;;9.90;99.90;;;;;;5033225;28;20104;-70
2022/10/23 07:31:16;;;;;;;2.67;2.47;;;9.90;99.90;;;;;;5031128;28;20460;-70
2022/10/23 07:33:41;;;;;;;5.13;1.50;;;9.90;99.90;;;;;;5031196;28;20025;-70
2022/10/23 07:36:08;;;;;;;1.93;1.37;;;10.00;99.90;;;;;;5031461;28;20028;-72
2022/10/23 07:38:34;;;;;;;2.15;1.95;;;10.00;99.90;;;;;;5028935;28;20116;-70
2022/10/23 07:41:00;;;;;;;1.87;1.30;;;10.00;99.90;;;;;;5031052;28;20135;-72
2022/10/23 07:43:26;;;;;;;1.30;1.25;;;10.00;99.90;;;;;;5029648;28;20042;-71
2022/10/23 07:45:53;;;;;;;14.35;3.45;;;10.00;99.90;;;;;;5029919;28;20484;-69
2022/10/23 07:48:20;;;;;;;2.80;2.60;;;10.10;99.90;;;;;;5029500;28;21117;-69
2022/10/23 07:50:46;;;;;;;1.90;1.25;;;10.10;99.90;;;;;;5030660;28;20030;-69
2022/10/23 07:53:20;;;;;;;2.77;1.97;;;10.10;99.90;;;;;;5031178;28;20108;-69
2022/10/23 07:55:58;;;;;;;0.98;0.95;;;10.10;99.90;;;;;;5029909;28;20341;-69
2022/10/23 07:58:25;;;;;;;0.90;0.90;;;10.10;99.90;;;;;;5029169;28;20179;-70
2022/10/23 08:00:57;;;;;;;0.70;0.70;;;10.10;99.90;;;;;;5031429;28;20033;-70
2022/10/23 08:03:27;;;;;;;1.48;1.38;;;10.20;99.90;;;;;;5029321;28;20496;-71
2022/10/23 08:05:53;;;;;;;0.80;0.80;;;10.10;99.90;;;;;;5028937;28;20033;-71
2022/10/23 08:08:20;;;;;;;1.48;1.17;;;10.20;99.90;;;;;;5027255;28;20473;-71
2022/10/23 08:10:47;;;;;;;1.95;1.60;;;10.20;99.90;;;;;;5030514;28;20396;-74
2022/10/23 08:13:13;;;;;;;1.20;1.15;;;10.30;99.90;;;;;;5030255;28;20046;-68
2022/10/23 08:15:39;;;;;;;1.33;1.27;;;10.30;99.90;;;;;;5029688;28;20052;-68
2022/10/23 08:18:05;;;;;;;3.03;1.63;;;10.40;99.90;;;;;;5030389;28;20076;-71
2022/10/23 08:20:31;;;;;;;1.50;1.40;;;10.40;99.90;;;;;;5030530;28;20034;-68
2022/10/23 08:22:56;;;;;;;0.97;0.97;;;10.40;99.90;;;;;;5029517;28;20032;-69
2022/10/23 08:25:22;;;;;;;1.50;1.37;;;10.40;99.90;;;;;;5031223;28;20034;-70
2022/10/23 08:27:47;;;;;;;5.53;3.47;;;10.40;99.90;;;;;;5029911;28;20071;-70
2022/10/23 08:30:13;;;;;;;6.50;2.00;;;10.40;99.90;;;;;;5030453;28;20461;-69
2022/10/23 08:32:39;;;;;;;2.60;1.73;;;10.40;99.90;;;;;;5030150;28;20089;-69
2022/10/23 08:35:05;;;;;;;1.60;1.50;;;10.50;99.90;;;;;;5032030;28;20465;-69
2022/10/23 08:37:31;;;;;;;2.47;1.47;;;10.40;99.90;;;;;;5031221;28;20022;-70
2022/10/23 08:39:56;;;;;;;1.97;1.87;;;10.40;99.90;;;;;;5013590;28;20033;-69
2022/10/23 08:42:24;;;;;;;1.73;1.63;;;10.50;99.90;;;;;;5028661;28;20271;-69
2022/10/23 08:45:04;;;;;;;1.80;1.70;;;10.50;99.90;;;;;;5030574;28;20029;-69
2022/10/23 08:47:37;;;;;;;1.10;1.00;;;10.50;99.90;;;;;;5029349;28;20045;-70
2022/10/23 08:50:13;;;;;;;2.42;2.22;;;10.50;99.90;;;;;;5014132;28;20041;-69
2022/10/23 08:52:51;;;;;;;1.75;1.65;;;10.60;99.90;;;;;;5011343;28;20042;-68
2022/10/23 08:55:25;;;;;;;2.88;2.53;;;10.60;99.90;;;;;;5029932;28;20040;-68
2022/10/23 08:58:16;;;;;;;0.88;0.88;;;10.60;99.90;;;;;;5030988;28;20116;-68
2022/10/23 09:00:43;;;;;;;3.72;2.03;;;10.60;99.90;;;;;;5029906;28;20060;-71
2022/10/23 09:03:11;;;;;;;1.98;1.48;;;10.70;99.90;;;;;;5029034;28;20036;-72
2022/10/23 09:05:55;;;;;;;3.15;2.90;;;10.70;99.90;;;;;;5027591;28;20041;-71
2022/10/23 09:08:27;;;;;;;0.70;0.70;;;10.70;99.90;;;;;;5028014;28;20033;-71
2022/10/23 09:11:10;;;;;;;1.63;1.52;;;10.70;99.90;;;;;;5029388;28;20025;-71
2022/10/23 09:13:59;;;;;;;2.10;1.48;;;10.80;99.90;;;;;;5029539;28;20049;-71
2022/10/23 09:16:43;;;;;;;1.30;1.23;;;10.80;99.90;;;;;;5028514;28;20091;-73
2022/10/23 09:19:16;;;;;;;1.55;1.45;;;10.80;99.90;;;;;;5028417;28;20030;-76
2022/10/23 09:21:45;;;;;;;2.40;2.28;;;10.90;99.90;;;;;;5029454;28;20112;-75
2022/10/23 09:24:21;;;;;;;2.05;1.95;;;10.90;99.90;;;;;;5029926;28;20265;-75
2022/10/23 09:26:48;;;;;;;1.45;1.15;;;10.90;99.90;;;;;;5030501;28;20030;-73
2022/10/23 09:29:25;;;;;;;1.55;1.45;;;10.90;99.90;;;;;;5029008;28;20029;-74
2022/10/23 09:31:53;;;;;;;1.70;1.60;;;11.00;99.90;;;;;;5028686;28;20476;-74
2022/10/23 09:34:23;;;;;;;0.80;0.80;;;11.00;99.90;;;;;;5027769;28;20316;-74
2022/10/23 09:37:01;;;;;;;2.92;1.42;;;11.00;99.90;;;;;;5028395;28;20037;-73
2022/10/23 09:39:33;;;;;;;2.40;1.85;;;11.00;99.90;;;;;;5028966;28;20036;-74
2022/10/23 09:42:01;;;;;;;1.30;1.27;;;11.10;99.90;;;;;;5029711;28;20042;-73
2022/10/23 09:44:33;;;;;;;2.00;1.85;;;11.10;99.90;;;;;;5033386;28;20112;-74
2022/10/23 09:47:07;;;;;;;1.75;1.38;;;11.10;99.90;;;;;;5033907;28;20416;-74
2022/10/23 09:49:34;;;;;;;0.85;0.85;;;11.10;99.90;;;;;;5032129;28;20045;-74
2022/10/23 09:52:08;;;;;;;2.00;1.77;;;11.10;99.90;;;;;;5030863;28;20084;-75
2022/10/23 09:54:46;;;;;;;1.45;1.38;;;11.20;99.90;;;;;;5031726;28;20449;-74
2022/10/23 09:57:38;;;;;;;1.40;1.30;;;11.10;99.90;;;;;;5032595;28;20241;-73
2022/10/23 10:00:25;;;;;;;1.90;1.75;;;11.20;99.90;;;;;;5031785;28;20028;-75
2022/10/23 10:02:56;;;;;;;3.33;1.80;;;11.20;99.90;;;;;;5031265;28;20029;-73
2022/10/23 10:05:34;;;;;;;4.88;2.30;;;11.30;99.90;;;;;;5032153;28;20036;-74
2022/10/23 10:08:19;;;;;;;1.58;1.48;;;11.30;99.90;;;;;;5030564;28;20119;-74
2022/10/23 10:10:52;;;;;;;4.40;1.60;;;11.30;99.90;;;;;;5032941;28;20129;-75
2022/10/23 10:13:35;;;;;;;1.75;1.40;;;11.40;99.90;;;;;;5031288;28;20044;-74
2022/10/23 10:16:00;;;;;;;0.82;0.82;;;11.40;99.90;;;;;;5032729;28;20487;-74
2022/10/23 10:18:49;;;;;;;0.87;0.87;;;11.40;99.90;;;;;;5029272;28;20033;-74
2022/10/23 10:21:25;;;;;;;0.90;0.90;;;11.50;99.90;;;;;;5031346;28;20029;-73
2022/10/23 10:24:02;;;;;;;2.17;1.98;;;11.50;99.90;;;;;;5017598;28;20025;-75
2022/10/23 10:26:50;;;;;;;1.67;1.58;;;11.50;99.90;;;;;;5030842;28;20477;-75
2022/10/23 10:29:24;;;;;;;3.33;1.35;;;11.50;99.90;;;;;;5031825;28;20113;-75
2022/10/23 10:32:15;;;;;;;0.77;0.77;;;11.50;99.90;;;;;;5033001;28;20834;-75
2022/10/23 10:34:58;;;;;;;3.35;2.25;;;11.50;99.90;;;;;;5031713;28;20029;-76
2022/10/23 10:37:54;;;;;;;3.67;2.30;;;11.50;99.90;;;;;;5030970;28;20052;-75
2022/10/23 10:40:31;;;;;;;1.88;1.75;;;11.50;99.90;;;;;;5028450;28;20473;-75
2022/10/23 10:43:09;;;;;;;0.88;0.88;;;11.60;99.90;;;;;;5032760;28;20064;-76
2022/10/23 10:45:45;;;;;;;1.35;0.57;;;11.60;99.90;;;;;;5032124;28;20102;-76
2022/10/23 10:48:19;;;;;;;0.90;0.90;;;11.60;99.90;;;;;;5030646;28;20091;-75
2022/10/23 10:50:55;;;;;;;0.80;0.80;;;11.60;99.90;;;;;;5032341;28;20040;-76
2022/10/23 10:53:35;;;;;;;1.45;1.35;;;11.60;99.90;;;;;;5032092;28;20044;-74
2022/10/23 10:56:03;;;;;;;4.25;1.35;;;11.70;99.90;;;;;;5030322;28;20345;-74
2022/10/23 10:58:44;;;;;;;1.05;1.05;;;11.70;99.90;;;;;;5031640;28;20033;-75
2022/10/23 11:01:25;;;;;;;2.08;1.95;;;11.80;99.90;;;;;;5032632;28;20492;-74
2022/10/23 11:04:08;;;;;;;0.88;0.88;;;11.70;99.90;;;;;;5030209;28;20030;-75
2022/10/23 11:06:36;;;;;;;0.70;0.70;;;11.70;99.90;;;;;;5030565;28;20074;-74
2022/10/23 11:09:15;;;;;;;0.60;0.60;;;11.70;99.90;;;;;;5029572;28;20083;-74
2022/10/23 11:11:40;;;;;;;1.10;1.00;;;11.70;99.90;;;;;;5030461;28;20072;-74
2022/10/23 11:14:23;;;;;;;1.00;1.00;;;11.70;99.90;;;;;;5028559;28;20490;-74
2022/10/23 11:17:07;;;;;;;0.50;0.50;;;11.80;99.90;;;;;;5031447;28;20028;-73
2022/10/23 11:20:02;;;;;;;0.95;0.95;;;11.90;99.90;;;;;;5019764;28;20435;-74
2022/10/23 11:22:36;;;;;;;1.38;1.20;;;11.90;99.90;;;;;;5029735;28;20038;-74
2022/10/23 11:25:14;;;;;;;1.70;1.60;;;12.00;99.90;;;;;;5029902;28;20030;-75
2022/10/23 11:27:39;;;;;;;1.05;0.77;;;12.00;99.90;;;;;;5030546;28;20615;-74
2022/10/23 11:30:18;;;;;;;1.03;0.87;;;12.10;99.90;;;;;;5030609;28;20112;-74
2022/10/23 11:33:10;;;;;;;0.93;0.93;;;12.10;99.90;;;;;;5031312;28;20388;-74
2022/10/23 11:35:54;;;;;;;1.13;1.02;;;12.10;99.90;;;;;;5021156;28;20045;-74
2022/10/23 11:38:35;;;;;;;0.95;0.95;;;12.20;99.90;;;;;;5029477;28;20061;-74
2022/10/23 11:41:16;;;;;;;0.30;0.30;;;12.20;99.90;;;;;;5033010;28;20021;-74
2022/10/23 11:44:02;;;;;;;0.95;0.73;;;12.20;99.90;;;;;;5029996;28;20064;-74
2022/10/23 11:46:34;;;;;;;0.82;0.82;;;12.30;99.90;;;;;;5028179;28;20045;-74
2022/10/23 11:49:02;;;;;;;0.43;0.43;;;12.30;99.90;;;;;;5030425;28;20037;-74
2022/10/23 11:51:32;;;;;;;0.40;0.40;;;12.30;99.90;;;;;;5031654;28;20288;-74
2022/10/23 11:54:10;;;;;;;1.45;1.35;;;12.30;99.90;;;;;;5029175;28;20036;-73
2022/10/23 11:56:37;;;;;;;3.60;2.03;;;12.30;99.90;;;;;;5028080;28;20065;-74
2022/10/23 11:59:22;;;;;;;0.57;0.57;;;12.30;99.90;;;;;;5030510;28;20052;-74
2022/10/23 12:01:50;;;;;;;0.40;0.40;;;12.30;99.90;;;;;;5011897;28;20149;-74
2022/10/23 12:04:22;;;;;;;0.40;0.40;;;12.30;99.90;;;;;;5025785;28;20060;-75
2022/10/23 12:07:01;;;;;;;0.70;0.70;;;12.30;99.90;;;;;;5028484;28;20063;-74
2022/10/23 12:09:34;;;;;;;0.55;0.55;;;12.30;99.90;;;;;;5029548;28;20057;-73
2022/10/23 12:12:04;;;;;;;0.80;0.80;;;12.30;99.90;;;;;;5028767;28;20031;-74
2022/10/23 12:14:31;;;;;;;0.55;0.55;;;12.30;99.90;;;;;;5029222;28;20157;-75
2022/10/23 12:16:58;;;;;;;0.50;0.50;;;12.20;99.90;;;;;;5029318;28;20025;-74
2022/10/23 12:19:27;;;;;;;1.35;1.25;;;12.20;99.90;;;;;;5030355;28;20060;-74
2022/10/23 12:22:00;;;;;;;1.52;1.42;;;12.20;99.90;;;;;;5030206;28;20036;-74
2022/10/23 12:24:43;;;;;;;0.85;0.85;;;12.10;99.90;;;;;;5030451;28;20484;-76
2022/10/23 12:27:27;;;;;;;0.30;0.30;;;12.10;99.90;;;;;;5029105;28;20040;-74
2022/10/23 12:30:20;;;;;;;2.22;0.85;;;12.10;99.90;;;;;;5027747;28;20029;-74
2022/10/23 12:33:01;;;;;;;0.60;0.60;;;12.10;99.90;;;;;;5027678;28;20136;-74
2022/10/23 12:35:39;;;;;;;0.85;0.85;;;12.10;99.90;;;;;;5010773;28;20099;-73
2022/10/23 12:38:14;;;;;;;1.00;1.00;;;12.00;99.90;;;;;;5028440;28;20537;-74
2022/10/23 12:40:44;;;;;;;1.52;1.42;;;12.00;99.90;;;;;;5027256;28;20157;-74
2022/10/23 12:43:23;;;;;;;0.40;0.40;;;11.90;99.90;;;;;;5029648;28;20384;-75
2022/10/23 12:45:50;;;;;;;0.68;0.68;;;11.90;99.90;;;;;;5028169;28;20560;-74
2022/10/23 12:48:20;;;;;;;0.70;0.70;;;11.90;99.90;;;;;;5029192;28;20059;-74
2022/10/23 12:50:52;;;;;;;0.60;0.60;;;11.90;99.90;;;;;;5029225;28;20061;-75
2022/10/23 12:53:20;;;;;;;0.40;0.40;;;11.90;99.90;;;;;;5029814;28;20037;-74
2022/10/23 12:56:02;;;;;;;0.55;0.55;;;11.90;99.90;;;;;;5028824;28;20033;-74
2022/10/23 12:58:30;;;;;;;0.35;0.35;;;12.00;99.90;;;;;;5028699;28;20510;-75
2022/10/23 13:00:59;;;;;;;0.52;0.52;;;12.00;99.90;;;;;;5028209;28;20065;-74
2022/10/23 13:03:27;;;;;;;1.20;1.02;;;11.90;99.90;;;;;;5026922;28;20107;-73
2022/10/23 13:05:57;;;;;;;0.75;0.75;;;11.90;99.90;;;;;;5028907;28;20056;-74
2022/10/23 13:08:33;;;;;;;0.50;0.50;;;11.90;99.90;;;;;;5029274;28;20120;-75
2022/10/23 13:10:59;;;;;;;0.38;0.38;;;11.90;99.90;;;;;;5027405;28;20037;-75
2022/10/23 13:13:25;;;;;;;1.70;1.23;;;11.90;99.90;;;;;;5028354;28;20034;-74